Time;durP1;ratioP1;P1;durP2;ratioP2;P2;SDS_P1;SDS_P2;PMS_P1;PMS_P2;Temp;Humidity;BMP_temperature;BMP_pressure;BME280_temperature;BME280_humidity;BME280_pressure;Samples;Min_cycle;Max_cycle;Signal;HPM_P1;HPM_P2
2023/03/24 00:00:25;;;;;;;0.20;0.20;;;;;;;12.77;100.00;100479.19;5064596;28;20072;-63
2023/03/24 00:02:55;;;;;;;0.20;0.20;;;;;;;12.76;100.00;100482.34;5052887;28;20495;-64
2023/03/24 00:05:27;;;;;;;0.20;0.20;;;;;;;12.73;100.00;100478.34;5052272;28;20029;-63
2023/03/24 00:07:55;;;;;;;0.20;0.20;;;;;;;12.70;100.00;100475.47;5052185;28;20490;-63
2023/03/24 00:10:29;;;;;;;0.20;0.20;;;;;;;12.64;100.00;100480.53;5052812;28;20127;-62
2023/03/24 00:12:57;;;;;;;0.30;0.30;;;;;;;12.57;100.00;100472.06;5052478;28;20091;-66
2023/03/24 00:15:26;;;;;;;0.20;0.20;;;;;;;12.58;100.00;100470.88;5052200;28;20029;-63
2023/03/24 00:17:57;;;;;;;0.20;0.20;;;;;;;12.56;100.00;100471.22;5053192;28;20064;-62
2023/03/24 00:20:25;;;;;;;0.20;0.20;;;;;;;12.44;100.00;100474.16;5052209;28;20029;-63
2023/03/24 00:22:57;;;;;;;0.20;0.20;;;;;;;12.45;100.00;100473.00;5055993;28;20040;-63
2023/03/24 00:25:27;;;;;;;0.20;0.20;;;;;;;12.42;100.00;100467.34;5057133;28;20492;-63
2023/03/24 00:27:56;;;;;;;0.20;0.20;;;;;;;12.35;100.00;100468.00;5055986;28;20028;-62
2023/03/24 00:30:23;;;;;;;0.20;0.20;;;;;;;12.34;100.00;100463.59;5056844;28;20075;-63
2023/03/24 00:32:52;;;;;;;0.20;0.20;;;;;;;12.32;100.00;100463.19;5055978;28;20040;-63
2023/03/24 00:35:18;;;;;;;0.20;0.20;;;;;;;12.28;100.00;100456.72;5056227;28;20029;-65
2023/03/24 00:37:44;;;;;;;0.20;0.20;;;;;;;12.28;100.00;100463.09;5055890;28;20056;-64
2023/03/24 00:40:15;;;;;;;0.20;0.20;;;;;;;12.27;100.00;100467.06;5056118;28;20099;-63
2023/03/24 00:42:45;;;;;;;0.20;0.20;;;;;;;12.21;100.00;100454.59;5055802;28;20112;-62
2023/03/24 00:45:21;;;;;;;0.20;0.20;;;;;;;12.22;100.00;100464.56;5057068;28;20487;-63
2023/03/24 00:47:53;;;;;;;0.20;0.20;;;;;;;12.26;100.00;100459.06;5055946;28;20029;-64
2023/03/24 00:50:19;;;;;;;0.20;0.20;;;;;;;12.30;100.00;100465.50;5055699;28;20025;-64
2023/03/24 00:52:47;;;;;;;0.20;0.20;;;;;;;12.25;100.00;100468.59;5055583;28;20028;-64
2023/03/24 00:55:17;;;;;;;0.20;0.20;;;;;;;12.19;100.00;100470.88;5055897;28;20032;-63
2023/03/24 00:57:53;;;;;;;0.20;0.20;;;;;;;12.26;100.00;100464.66;5055540;28;20029;-64
2023/03/24 01:00:25;;;;;;;0.20;0.20;;;;;;;12.17;100.00;100455.69;5055318;28;20045;-64
2023/03/24 01:02:55;;;;;;;0.20;0.20;;;;;;;12.10;100.00;100463.91;5055606;28;20029;-63
2023/03/24 01:05:26;;;;;;;0.20;0.20;;;;;;;12.03;100.00;100447.81;5059956;28;20563;-65
2023/03/24 01:07:55;;;;;;;0.20;0.20;;;;;;;12.01;100.00;100458.53;5060031;28;20033;-63
2023/03/24 01:10:25;;;;;;;0.20;0.20;;;;;;;11.97;100.00;100458.44;5055427;28;20167;-63
2023/03/24 01:12:55;;;;;;;0.20;0.20;;;;;;;11.96;100.00;100453.25;5056862;28;20032;-62
2023/03/24 01:15:23;;;;;;;0.20;0.20;;;;;;;11.96;100.00;100462.41;5055256;28;20037;-63
2023/03/24 01:17:52;;;;;;;0.20;0.20;;;;;;;11.95;100.00;100471.16;5055741;28;20032;-63
2023/03/24 01:20:21;;;;;;;0.20;0.20;;;;;;;11.91;100.00;100471.06;5055394;28;20194;-63
2023/03/24 01:22:47;;;;;;;0.30;0.30;;;;;;;11.94;100.00;100475.13;5055060;28;20033;-64
2023/03/24 01:25:20;;;;;;;0.30;0.30;;;;;;;11.95;100.00;100469.19;5055107;28;20040;-63
2023/03/24 01:27:50;;;;;;;0.20;0.20;;;;;;;11.95;100.00;100466.38;5054915;28;20025;-63
2023/03/24 01:30:19;;;;;;;0.20;0.20;;;;;;;11.95;100.00;100471.97;5055770;28;20509;-64
2023/03/24 01:32:45;;;;;;;0.20;0.20;;;;;;;11.94;100.00;100475.94;5054347;28;20029;-63
2023/03/24 01:35:11;;;;;;;0.20;0.20;;;;;;;11.98;100.00;100471.22;5054795;28;20045;-63
2023/03/24 01:37:39;;;;;;;0.20;0.20;;;;;;;11.99;100.00;100469.25;5054829;28;20098;-63
2023/03/24 01:40:08;;;;;;;0.20;0.20;;;;;;;11.94;100.00;100464.78;5054769;28;20098;-63
2023/03/24 01:42:37;;;;;;;0.20;0.20;;;;;;;12.01;100.00;100464.91;5055282;28;20380;-64
2023/03/24 01:45:41;;;;;;;0.20;0.20;;;;;;;12.00;100.00;100470.88;5055000;28;20059;-63
2023/03/24 01:48:09;;;;;;;0.20;0.20;;;;;;;12.05;100.00;100462.22;5030556;28;20414;-63
2023/03/24 01:50:41;;;;;;;0.20;0.20;;;;;;;11.99;100.00;100460.91;5054968;28;20041;-63
2023/03/24 01:53:08;;;;;;;0.20;0.20;;;;;;;12.03;100.00;100454.19;5055143;28;20036;-63
2023/03/24 01:55:41;;;;;;;0.20;0.20;;;;;;;11.98;100.00;100456.47;5054597;28;20036;-64
2023/03/24 01:58:10;;;;;;;0.20;0.20;;;;;;;11.92;100.00;100453.16;5055224;28;20037;-63
2023/03/24 02:00:36;;;;;;;0.20;0.20;;;;;;;12.03;100.00;100458.97;5054596;28;20566;-63
2023/03/24 02:03:11;;;;;;;0.22;0.22;;;;;;;11.99;100.00;100455.31;5055833;28;20112;-64
2023/03/24 02:05:38;;;;;;;0.20;0.20;;;;;;;11.99;100.00;100458.91;5055119;28;20043;-63
2023/03/24 02:08:28;;;;;;;0.20;0.20;;;;;;;11.98;100.00;100456.47;5054751;28;20025;-63
2023/03/24 02:10:57;;;;;;;0.20;0.20;;;;;;;12.01;100.00;100453.75;5054256;28;20036;-63
2023/03/24 02:13:26;;;;;;;0.20;0.20;;;;;;;12.03;100.00;100456.19;5054676;28;20028;-64
2023/03/24 02:16:13;;;;;;;0.20;0.20;;;;;;;12.00;100.00;100454.94;5054074;28;20494;-63
2023/03/24 02:18:45;;;;;;;0.20;0.20;;;;;;;11.96;100.00;100456.84;5054078;28;20029;-63
2023/03/24 02:21:25;;;;;;;0.20;0.20;;;;;;;12.03;100.00;100457.00;5054234;28;20380;-63
2023/03/24 02:24:28;;;;;;;0.20;0.20;;;;;;;11.73;100.00;100428.84;5053888;28;20029;-63
2023/03/24 02:27:32;;;;;;;0.20;0.20;;;;;;;11.70;100.00;100465.00;4985453;28;20039;-63
2023/03/24 02:30:28;;;;;;;0.22;0.22;;;;;;;11.60;100.00;100462.75;5036408;28;20033;-62
2023/03/24 02:33:13;;;;;;;0.30;0.30;;;;;;;11.58;100.00;100459.53;5054351;28;20037;-62
2023/03/24 02:35:57;;;;;;;0.20;0.20;;;;;;;11.68;100.00;100450.63;5053676;28;20056;-63
2023/03/24 02:39:10;;;;;;;0.30;0.30;;;;;;;11.64;100.00;100455.28;5053682;28;20033;-62
2023/03/24 02:41:52;;;;;;;0.20;0.20;;;;;;;11.47;100.00;100448.94;4976908;28;20512;-63
2023/03/24 02:44:43;;;;;;;0.20;0.20;;;;;;;11.39;100.00;100449.94;4992792;28;20026;-63
2023/03/24 02:47:23;;;;;;;0.20;0.20;;;;;;;11.37;100.00;100451.50;5049781;28;20538;-64
2023/03/24 02:49:55;;;;;;;0.30;0.30;;;;;;;11.13;100.00;100425.47;5054710;28;20531;-64
2023/03/24 02:52:45;;;;;;;0.20;0.20;;;;;;;11.26;100.00;100440.09;5053412;28;20070;-63
2023/03/24 02:55:27;;;;;;;0.20;0.20;;;;;;;11.06;100.00;100416.13;5053620;28;20031;-63
2023/03/24 02:58:07;;;;;;;0.28;0.28;;;;;;;11.15;100.00;100439.84;5053265;28;20036;-63
2023/03/24 03:01:04;;;;;;;0.20;0.20;;;;;;;11.16;100.00;100441.44;5061729;28;20136;-63
2023/03/24 03:03:39;;;;;;;0.20;0.20;;;;;;;11.27;100.00;100447.28;5040712;28;20078;-63
2023/03/24 03:06:16;;;;;;;0.20;0.20;;;;;;;11.39;100.00;100449.94;5073688;28;20361;-63
2023/03/24 03:08:46;;;;;;;0.20;0.20;;;;;;;11.46;100.00;100447.34;5073552;28;20367;-63
2023/03/24 03:11:14;;;;;;;0.30;0.30;;;;;;;11.32;100.00;100438.63;5074057;28;20033;-63
2023/03/24 03:14:01;;;;;;;0.30;0.30;;;;;;;11.27;100.00;100447.28;5073905;28;20082;-62
2023/03/24 03:16:58;;;;;;;0.20;0.20;;;;;;;11.27;100.00;100452.84;5073176;28;20135;-63
2023/03/24 03:19:33;;;;;;;0.20;0.20;;;;;;;11.24;100.00;100453.59;5075017;28;20107;-63
2023/03/24 03:22:03;;;;;;;0.20;0.20;;;;;;;11.19;100.00;100454.66;5072834;28;20085;-63
2023/03/24 03:24:36;;;;;;;0.20;0.20;;;;;;;11.19;100.00;100457.44;5072999;28;20028;-63
2023/03/24 03:27:07;;;;;;;0.20;0.20;;;;;;;11.25;100.00;100460.75;5073547;28;20447;-63
2023/03/24 03:29:39;;;;;;;0.20;0.20;;;;;;;11.24;100.00;100457.16;5072814;28;20028;-63
2023/03/24 03:32:13;;;;;;;0.20;0.20;;;;;;;11.25;100.00;100460.75;5073051;28;20033;-62
2023/03/24 03:34:41;;;;;;;0.30;0.30;;;;;;;11.09;100.00;100437.69;5073328;28;20109;-64
2023/03/24 03:37:17;;;;;;;0.20;0.20;;;;;;;11.23;100.00;100463.88;5073255;28;20036;-63
2023/03/24 03:39:54;;;;;;;0.20;0.20;;;;;;;11.25;100.00;100478.28;5073971;28;20530;-64
2023/03/24 03:42:22;;;;;;;0.20;0.20;;;;;;;11.25;100.00;100474.69;5072625;28;20033;-63
2023/03/24 03:44:47;;;;;;;0.20;0.20;;;;;;;11.38;100.00;100467.84;5072600;28;20083;-63
2023/03/24 03:47:17;;;;;;;0.25;0.25;;;;;;;11.41;100.00;100467.13;5072466;28;20028;-63
2023/03/24 03:49:48;;;;;;;0.20;0.20;;;;;;;11.44;100.00;100474.75;5072563;28;20028;-63
2023/03/24 03:52:19;;;;;;;0.30;0.30;;;;;;;11.39;100.00;100477.00;5072515;28;20064;-63
2023/03/24 03:54:48;;;;;;;0.20;0.20;;;;;;;11.38;100.00;100467.03;5073336;28;20020;-63
2023/03/24 03:57:17;;;;;;;0.20;0.20;;;;;;;11.36;100.00;100478.53;5072830;28;20063;-63
2023/03/24 03:59:43;;;;;;;0.20;0.20;;;;;;;11.43;100.00;100467.56;5077045;28;20029;-64
2023/03/24 04:02:12;;;;;;;0.20;0.20;;;;;;;11.56;100.00;100476.63;5095533;28;20036;-64
2023/03/24 04:05:09;;;;;;;0.30;0.30;;;;;;;11.36;100.00;100481.31;5077275;28;20032;-63
2023/03/24 04:07:38;;;;;;;0.20;0.20;;;;;;;11.29;100.00;100478.34;5075892;28;20024;-63
2023/03/24 04:10:25;;;;;;;0.20;0.20;;;;;;;11.37;100.00;100488.50;5076333;28;20129;-63
2023/03/24 04:13:26;;;;;;;0.30;0.30;;;;;;;11.37;100.00;100485.72;5075600;28;20028;-63
2023/03/24 04:16:24;;;;;;;0.20;0.20;;;;;;;11.37;100.00;100490.50;5076146;28;20050;-63
2023/03/24 04:19:06;;;;;;;0.20;0.20;;;;;;;11.34;100.00;100480.88;5076122;28;20356;-63
2023/03/24 04:21:47;;;;;;;0.20;0.20;;;;;;;11.39;100.00;100494.50;5075599;28;20060;-63
2023/03/24 04:24:43;;;;;;;0.30;0.30;;;;;;;11.41;100.00;100491.38;5075583;28;20463;-64
2023/03/24 04:27:28;;;;;;;0.20;0.20;;;;;;;11.39;100.00;100488.94;5077992;28;20024;-64
2023/03/24 04:30:08;;;;;;;0.28;0.28;;;;;;;11.43;100.00;100489.84;5094505;28;20225;-63
2023/03/24 04:32:59;;;;;;;0.20;0.20;;;;;;;11.48;100.00;100492.34;5075461;28;20035;-63
2023/03/24 04:35:40;;;;;;;0.20;0.20;;;;;;;11.54;100.00;100490.91;5069470;28;20390;-63
2023/03/24 04:38:13;;;;;;;0.20;0.20;;;;;;;11.60;100.00;100493.41;5075937;28;20031;-63
2023/03/24 04:40:48;;;;;;;0.20;0.20;;;;;;;11.59;100.00;100497.38;5075579;28;20421;-64
2023/03/24 04:43:17;;;;;;;0.20;0.20;;;;;;;11.64;100.00;100497.09;5093743;28;20097;-63
2023/03/24 04:45:48;;;;;;;0.20;0.20;;;;;;;11.67;100.00;100493.59;5092228;28;20028;-63
2023/03/24 04:48:16;;;;;;;0.20;0.20;;;;;;;11.74;100.00;100494.56;5093529;28;20050;-63
2023/03/24 04:50:51;;;;;;;0.20;0.20;;;;;;;11.74;100.00;100491.78;5092969;28;20362;-63
2023/03/24 04:53:21;;;;;;;0.30;0.30;;;;;;;11.74;100.00;100490.97;5093662;28;20027;-63
2023/03/24 04:56:34;;;;;;;0.20;0.20;;;;;;;11.83;100.00;100499.19;5075604;28;20043;-63
2023/03/24 04:58:59;;;;;;;0.20;0.20;;;;;;;11.82;100.00;100491.97;5066829;28;20119;-63
2023/03/24 05:01:28;;;;;;;0.20;0.20;;;;;;;11.83;100.00;100491.63;5075537;28;20135;-64
2023/03/24 05:03:55;;;;;;;0.20;0.20;;;;;;;11.79;100.00;100502.66;5094023;28;20405;-64
2023/03/24 05:06:26;;;;;;;0.20;0.20;;;;;;;11.90;100.00;100502.91;5075227;28;20035;-63
2023/03/24 05:08:52;;;;;;;0.20;0.20;;;;;;;11.97;100.00;100511.44;5079130;28;20111;-63
2023/03/24 05:11:19;;;;;;;0.30;0.30;;;;;;;11.78;100.00;100478.75;5078669;28;20423;-63
2023/03/24 05:13:46;;;;;;;0.20;0.20;;;;;;;11.93;100.00;100506.94;5095571;28;20024;-63
2023/03/24 05:16:16;;;;;;;0.20;0.20;;;;;;;11.91;100.00;100504.53;5078673;28;20039;-63
2023/03/24 05:18:44;;;;;;;0.20;0.20;;;;;;;11.93;100.00;100506.94;5095529;28;20024;-63
2023/03/24 05:21:12;;;;;;;0.20;0.20;;;;;;;11.96;100.00;100509.81;5095885;28;20117;-63
2023/03/24 05:23:37;;;;;;;0.20;0.20;;;;;;;11.92;100.00;100514.50;5079246;28;20035;-63
2023/03/24 05:26:04;;;;;;;0.20;0.20;;;;;;;11.99;100.00;100520.25;5078604;28;20031;-63
2023/03/24 05:28:32;;;;;;;0.20;0.20;;;;;;;12.00;100.00;100513.50;5078372;28;20020;-64
2023/03/24 05:30:59;;;;;;;0.20;0.20;;;;;;;12.04;100.00;100514.41;5078649;28;20032;-63
2023/03/24 05:33:30;;;;;;;0.20;0.20;;;;;;;12.10;100.00;100512.13;5078970;28;20027;-62
2023/03/24 05:35:58;;;;;;;0.20;0.20;;;;;;;12.14;100.00;100524.16;5078812;28;20035;-63
2023/03/24 05:38:27;;;;;;;0.20;0.20;;;;;;;12.24;100.00;100523.59;5095795;28;20027;-63
2023/03/24 05:40:57;;;;;;;0.20;0.20;;;;;;;12.59;100.00;100526.31;5096753;28;20036;-63
2023/03/24 05:43:25;;;;;;;0.20;0.20;;;;;;;13.43;100.00;100530.28;5095288;28;20027;-63
2023/03/24 05:45:54;;;;;;;0.20;0.20;;;;;;;13.85;100.00;100521.75;5078075;28;20039;-64
2023/03/24 05:48:21;;;;;;;0.20;0.20;;;;;;;13.77;100.00;100527.63;5078445;28;20028;-63
2023/03/24 05:50:52;;;;;;;0.20;0.20;;;;;;;13.76;100.00;100517.63;5078221;28;20038;-63
2023/03/24 05:53:17;;;;;;;0.20;0.20;;;;;;;13.71;100.00;100527.13;5094965;28;20059;-63
2023/03/24 05:55:44;;;;;;;0.20;0.20;;;;;;;13.73;100.00;100524.75;5077683;28;20063;-63
2023/03/24 05:58:10;;;;;;;0.20;0.20;;;;;;;13.77;100.00;100524.81;5077796;28;20024;-63
2023/03/24 06:00:39;;;;;;;0.20;0.20;;;;;;;13.96;100.00;100527.53;5077945;28;20109;-63
2023/03/24 06:03:08;;;;;;;0.20;0.20;;;;;;;14.26;100.00;100529.50;5078293;28;20054;-64
2023/03/24 06:05:37;;;;;;;0.20;0.20;;;;;;;14.42;97.84;100527.31;5096201;28;20036;-64
2023/03/24 06:08:05;;;;;;;0.20;0.20;;;;;;;14.56;97.23;100526.75;5078130;28;20032;-63
2023/03/24 06:10:31;;;;;;;0.20;0.20;;;;;;;14.25;94.89;100530.69;5077588;28;20047;-63
2023/03/24 06:13:02;;;;;;;0.20;0.20;;;;;;;14.28;96.57;100527.16;5077417;28;20425;-63
2023/03/24 06:15:30;;;;;;;0.20;0.20;;;;;;;14.24;97.14;100529.09;5077371;28;20467;-63
2023/03/24 06:17:59;;;;;;;0.20;0.20;;;;;;;14.36;95.49;100534.44;5077543;28;20058;-63
2023/03/24 06:20:28;;;;;;;0.20;0.20;;;;;;;14.32;95.25;100539.19;5077732;28;20379;-64
2023/03/24 06:22:58;;;;;;;0.20;0.20;;;;;;;14.84;92.65;100534.66;5077013;28;20028;-64
2023/03/24 06:25:27;;;;;;;0.20;0.20;;;;;;;15.74;92.94;100539.13;5093924;28;20115;-63
2023/03/24 06:27:52;;;;;;;0.20;0.20;;;;;;;16.59;82.49;100534.00;5077856;28;20024;-63
2023/03/24 06:30:18;;;;;;;0.20;0.20;;;;;;;16.92;77.89;100541.34;5077305;28;20439;-65
2023/03/24 06:32:50;;;;;;;0.20;0.20;;;;;;;17.22;76.58;100537.41;5094588;28;20348;-64
2023/03/24 06:35:16;;;;;;;0.20;0.20;;;;;;;17.38;78.20;100548.28;5077184;28;20027;-64
2023/03/24 06:37:42;;;;;;;0.20;0.20;;;;;;;18.00;73.71;100545.88;5076767;28;20024;-64
2023/03/24 06:40:13;;;;;;;0.20;0.20;;;;;;;18.22;72.66;100549.44;5077047;28;20105;-63
2023/03/24 06:42:42;;;;;;;0.20;0.20;;;;;;;19.01;66.12;100546.31;5076761;28;20032;-64
2023/03/24 06:45:10;;;;;;;0.20;0.20;;;;;;;19.28;62.86;100552.19;5093569;28;20035;-65
2023/03/24 06:47:36;;;;;;;0.20;0.20;;;;;;;19.47;61.35;100550.84;5093387;28;20119;-62
2023/03/24 06:50:02;;;;;;;0.20;0.20;;;;;;;19.62;61.30;100558.81;5076676;28;20066;-62
2023/03/24 06:52:30;;;;;;;0.20;0.20;;;;;;;19.77;62.72;100562.34;5076598;28;20435;-62
2023/03/24 06:54:57;;;;;;;0.20;0.20;;;;;;;19.80;61.41;100561.50;5076220;28;20024;-62
2023/03/24 06:57:27;;;;;;;0.20;0.20;;;;;;;20.05;57.90;100563.28;5076205;28;20123;-62
2023/03/24 06:59:55;;;;;;;0.20;0.20;;;;;;;19.86;58.38;100568.28;5076238;28;20463;-62
2023/03/24 07:02:24;;;;;;;0.20;0.20;;;;;;;20.50;56.66;100577.34;5093307;28;20059;-61
2023/03/24 07:04:52;;;;;;;0.20;0.20;;;;;;;20.75;53.10;100580.69;5093314;28;20031;-61
2023/03/24 07:07:21;;;;;;;0.20;0.20;;;;;;;20.55;56.18;100582.56;5093448;28;20024;-63
2023/03/24 07:09:48;;;;;;;0.20;0.20;;;;;;;21.45;52.52;100585.81;5094140;28;20547;-63
2023/03/24 07:12:14;;;;;;;0.20;0.20;;;;;;;21.23;50.96;100579.66;5076044;28;20060;-62
2023/03/24 07:14:42;;;;;;;0.20;0.20;;;;;;;21.52;49.59;100587.72;5076006;28;20040;-61
2023/03/24 07:17:12;;;;;;;0.20;0.20;;;;;;;20.83;52.45;100582.22;5076420;28;20401;-63
2023/03/24 07:19:37;;;;;;;0.20;0.20;;;;;;;20.58;53.52;100584.56;5076011;28;20470;-63
2023/03/24 07:22:08;;;;;;;0.20;0.20;;;;;;;19.91;55.82;100574.72;5075880;28;20031;-62
2023/03/24 07:24:37;;;;;;;0.20;0.20;;;;;;;20.34;56.57;100575.88;5076105;28;20382;-61
2023/03/24 07:27:07;;;;;;;0.20;0.20;;;;;;;20.23;53.24;100588.53;5093783;28;20028;-61
2023/03/24 07:29:34;;;;;;;0.20;0.20;;;;;;;20.28;54.77;100583.22;5075548;28;20064;-62
2023/03/24 07:32:03;;;;;;;0.20;0.20;;;;;;;20.62;52.06;100593.78;5075648;28;20032;-62
2023/03/24 07:34:30;;;;;;;0.20;0.20;;;;;;;20.14;53.07;100594.69;5075609;28;20024;-62
2023/03/24 07:36:56;;;;;;;0.20;0.20;;;;;;;19.98;53.35;100588.78;5094103;28;20054;-62
2023/03/24 07:39:24;;;;;;;0.20;0.20;;;;;;;19.78;54.33;100586.53;5076101;28;20063;-61
2023/03/24 07:41:52;;;;;;;0.20;0.20;;;;;;;19.81;54.78;100585.69;5075629;28;20039;-63
2023/03/24 07:44:21;;;;;;;0.20;0.20;;;;;;;20.05;53.93;100583.84;5092719;28;20039;-61
2023/03/24 07:46:47;;;;;;;0.20;0.20;;;;;;;20.88;50.17;100595.91;5075899;28;20032;-63
2023/03/24 07:49:13;;;;;;;0.20;0.20;;;;;;;20.98;52.27;100584.84;5076361;28;20367;-63
2023/03/24 07:51:41;;;;;;;0.20;0.20;;;;;;;22.02;49.76;100589.75;5076309;28;20370;-62
2023/03/24 07:54:12;;;;;;;0.20;0.20;;;;;;;21.09;50.92;100588.31;5092274;28;20033;-62
2023/03/24 07:56:43;;;;;;;0.20;0.20;;;;;;;21.30;48.57;100588.06;5092865;28;20088;-65
2023/03/24 07:59:11;;;;;;;0.20;0.20;;;;;;;21.56;48.83;100594.16;5075438;28;20028;-64
2023/03/24 08:01:42;;;;;;;0.20;0.20;;;;;;;21.34;49.43;100597.28;5075049;28;20079;-63
2023/03/24 08:04:12;;;;;;;0.20;0.20;;;;;;;21.23;49.21;100604.31;5075389;28;20035;-62
2023/03/24 08:06:38;;;;;;;0.20;0.20;;;;;;;20.17;52.44;100601.50;5075623;28;20055;-63
2023/03/24 08:09:05;;;;;;;0.20;0.20;;;;;;;20.09;56.28;100603.59;5075386;28;20021;-62
2023/03/24 08:11:31;;;;;;;0.20;0.20;;;;;;;19.92;54.47;100601.72;5076038;28;20020;-61
2023/03/24 08:13:57;;;;;;;0.20;0.20;;;;;;;18.97;57.35;100604.78;5075537;28;20055;-62
2023/03/24 08:16:23;;;;;;;0.20;0.20;;;;;;;18.32;61.99;100606.94;5075447;28;20025;-63
2023/03/24 08:18:56;;;;;;;0.20;0.20;;;;;;;18.90;57.62;100601.97;5076154;28;20024;-61
2023/03/24 08:21:27;;;;;;;0.20;0.20;;;;;;;19.94;54.26;100611.41;5076162;28;20032;-62
2023/03/24 08:23:56;;;;;;;0.20;0.20;;;;;;;20.34;52.31;100621.09;5075605;28;20036;-62
2023/03/24 08:26:26;;;;;;;0.20;0.20;;;;;;;21.29;49.74;100620.38;5075783;28;20024;-63
2023/03/24 08:28:53;;;;;;;0.20;0.20;;;;;;;20.60;50.69;100610.34;5075210;28;20035;-63
2023/03/24 08:31:18;;;;;;;0.20;0.20;;;;;;;19.84;53.31;100606.63;5075756;28;20020;-63
2023/03/24 08:33:46;;;;;;;0.20;0.20;;;;;;;19.52;54.32;100612.50;5075562;28;20481;-62
2023/03/24 08:36:14;;;;;;;0.20;0.20;;;;;;;19.05;54.60;100609.94;5092321;28;20509;-63
2023/03/24 08:38:42;;;;;;;0.20;0.20;;;;;;;18.62;54.15;100617.75;5075455;28;20040;-62
2023/03/24 08:41:10;;;;;;;0.20;0.20;;;;;;;18.94;54.39;100617.66;5075110;28;20482;-62
2023/03/24 08:43:36;;;;;;;0.20;0.20;;;;;;;19.37;53.49;100609.75;5078839;28;20054;-62
2023/03/24 08:46:08;;;;;;;0.20;0.20;;;;;;;19.43;55.01;100609.31;5079239;28;20458;-61
2023/03/24 08:48:35;;;;;;;0.20;0.20;;;;;;;18.84;55.20;100608.03;5078774;28;20032;-62
2023/03/24 08:51:12;;;;;;;0.20;0.20;;;;;;;18.76;55.60;100605.66;5078798;28;20027;-62
2023/03/24 08:53:40;;;;;;;0.20;0.20;;;;;;;19.55;53.00;100603.22;5079031;28;20039;-61
2023/03/24 08:56:06;;;;;;;0.20;0.20;;;;;;;20.74;49.04;100604.53;5079364;28;20032;-62
2023/03/24 08:58:35;;;;;;;0.20;0.20;;;;;;;20.97;48.30;100609.50;5078652;28;20036;-61
2023/03/24 09:01:01;;;;;;;0.20;0.20;;;;;;;21.46;47.47;100601.56;5096541;28;20136;-62
2023/03/24 09:03:30;;;;;;;0.20;0.20;;;;;;;22.22;45.19;100601.97;5079016;28;20127;-61
2023/03/24 09:05:57;;;;;;;0.20;0.20;;;;;;;21.18;47.71;100614.06;5078901;28;20471;-63
2023/03/24 09:08:27;;;;;;;0.20;0.20;;;;;;;21.27;47.19;100611.53;5095089;28;20043;-61
2023/03/24 09:10:53;;;;;;;0.20;0.20;;;;;;;21.24;48.21;100617.22;5078490;28;20097;-61
2023/03/24 09:13:20;;;;;;;0.20;0.20;;;;;;;21.79;46.73;100616.03;5078333;28;20020;-61
2023/03/24 09:15:51;;;;;;;0.20;0.20;;;;;;;21.79;46.94;100618.88;5078614;28;20028;-62
2023/03/24 09:18:18;;;;;;;0.20;0.20;;;;;;;21.68;47.03;100613.38;5078600;28;20130;-61
2023/03/24 09:20:48;;;;;;;0.20;0.20;;;;;;;20.54;48.54;100567.63;5096422;28;20039;-62
2023/03/24 09:23:16;;;;;;;0.20;0.20;;;;;;;20.64;50.31;100622.44;5078247;28;20127;-61
2023/03/24 09:25:44;;;;;;;0.20;0.20;;;;;;;20.51;50.69;100619.34;5078816;28;20344;-61
2023/03/24 09:28:12;;;;;;;0.20;0.20;;;;;;;20.87;50.91;100627.41;5078368;28;20048;-61
2023/03/24 09:30:41;;;;;;;0.20;0.20;;;;;;;21.23;48.75;100626.94;5095073;28;20036;-62
2023/03/24 09:33:06;;;;;;;0.20;0.20;;;;;;;21.14;48.70;100627.47;5095025;28;20028;-61
2023/03/24 09:35:36;;;;;;;0.20;0.20;;;;;;;20.14;52.72;100623.72;5078552;28;20104;-61
2023/03/24 09:38:04;;;;;;;0.20;0.20;;;;;;;21.14;50.46;100624.63;5077919;28;20024;-63
2023/03/24 09:40:34;;;;;;;0.20;0.20;;;;;;;21.14;50.73;100616.16;5078464;28;20119;-61
2023/03/24 09:43:19;;;;;;;0.20;0.20;;;;;;;22.39;47.32;100617.03;5077838;28;20024;-61
2023/03/24 09:45:51;;;;;;;0.20;0.20;;;;;;;22.38;45.87;100621.13;5095640;28;20031;-63
2023/03/24 09:48:27;;;;;;;0.20;0.20;;;;;;;22.74;45.96;100624.88;5077629;28;20028;-62
2023/03/24 09:51:01;;;;;;;0.20;0.20;;;;;;;22.31;46.48;100621.22;5077692;28;20028;-62
2023/03/24 09:53:50;;;;;;;0.20;0.20;;;;;;;22.44;46.39;100620.19;5094341;28;20545;-61
2023/03/24 09:56:19;;;;;;;0.20;0.20;;;;;;;22.16;47.52;100615.03;5094224;28;20032;-63
2023/03/24 09:58:52;;;;;;;0.20;0.20;;;;;;;22.46;46.58;100620.53;5077467;28;20038;-64
2023/03/24 10:01:20;;;;;;;0.20;0.20;;;;;;;21.38;49.26;100623.53;5077205;28;20085;-62
2023/03/24 10:03:49;;;;;;;0.20;0.20;;;;;;;22.91;45.70;100636.31;5077492;28;20032;-62
2023/03/24 10:06:28;;;;;;;0.20;0.20;;;;;;;23.24;45.06;100634.38;5095537;28;20070;-61
2023/03/24 10:09:24;;;;;;;0.10;0.10;;;;;;;20.91;49.82;100625.34;5077679;28;20035;-62
2023/03/24 10:12:21;;;;;;;0.20;0.20;;;;;;;21.74;49.07;100613.69;5077955;28;20032;-63
2023/03/24 10:15:01;;;;;;;0.13;0.13;;;;;;;21.85;48.55;100623.63;5094684;28;20081;-61
2023/03/24 10:17:27;;;;;;;0.10;0.10;;;;;;;23.30;45.55;100626.16;5077993;28;20153;-62
2023/03/24 10:20:17;;;;;;;0.20;0.20;;;;;;;23.12;44.38;100623.72;5077655;28;20460;-61
2023/03/24 10:22:51;;;;;;;0.20;0.20;;;;;;;22.16;47.55;100589.53;5077303;28;20482;-62
2023/03/24 10:25:24;;;;;;;0.20;0.20;;;;;;;22.42;46.30;100614.13;5076603;28;20482;-62
2023/03/24 10:28:08;;;;;;;0.10;0.10;;;;;;;23.16;44.75;100613.06;5076547;28;20423;-62
2023/03/24 10:30:39;;;;;;;0.20;0.20;;;;;;;23.39;45.26;100604.44;5076631;28;20036;-62
2023/03/24 10:33:07;;;;;;;0.13;0.13;;;;;;;23.66;43.89;100606.28;5077165;28;20043;-63
2023/03/24 10:35:40;;;;;;;0.15;0.15;;;;;;;23.93;43.26;100598.28;5076830;28;20090;-63
2023/03/24 10:38:20;;;;;;;0.20;0.20;;;;;;;24.16;43.35;100599.31;5095288;28;20024;-64
2023/03/24 10:40:49;;;;;;;0.20;0.20;;;;;;;23.81;42.27;100601.84;5077269;28;20020;-63
2023/03/24 10:43:18;;;;;;;0.20;0.20;;;;;;;24.16;41.73;100590.78;5077074;28;20476;-63
2023/03/24 10:45:52;;;;;;;0.20;0.20;;;;;;;23.15;43.86;100605.78;5076784;28;20046;-63
2023/03/24 10:48:39;;;;;;;0.10;0.10;;;;;;;23.53;42.28;100595.56;5076204;28;20039;-63
2023/03/24 10:51:12;;;;;;;0.20;0.20;;;;;;;23.14;43.35;100587.97;5076525;28;20066;-63
2023/03/24 10:53:41;;;;;;;0.10;0.10;;;;;;;22.60;44.39;100587.47;5093904;28;20056;-63
2023/03/24 10:56:10;;;;;;;0.10;0.10;;;;;;;22.91;44.25;100597.41;5094656;28;20040;-63
2023/03/24 10:58:43;;;;;;;0.20;0.20;;;;;;;23.15;42.72;100585.94;5093921;28;20356;-63
2023/03/24 11:01:30;;;;;;;0.17;0.17;;;;;;;23.53;42.91;100587.06;5076243;28;20062;-63
2023/03/24 11:04:02;;;;;;;0.20;0.20;;;;;;;23.06;43.22;100585.72;5092858;28;20031;-62
2023/03/24 11:06:30;;;;;;;0.20;0.20;;;;;;;23.00;42.50;100585.44;5092606;28;20032;-63
2023/03/24 11:09:19;;;;;;;0.20;0.20;;;;;;;22.81;42.34;100583.41;5093621;28;20024;-62
2023/03/24 11:11:45;;;;;;;0.20;0.20;;;;;;;23.16;42.41;100584.69;5076542;28;20028;-63
2023/03/24 11:14:45;;;;;;;0.20;0.20;;;;;;;23.61;41.37;100584.84;5075938;28;20028;-61
2023/03/24 11:17:15;;;;;;;0.20;0.20;;;;;;;22.30;44.54;100574.28;5093212;28;20066;-61
2023/03/24 11:19:55;;;;;;;0.10;0.10;;;;;;;22.52;44.44;100569.78;5094177;28;20132;-62
2023/03/24 11:22:26;;;;;;;0.20;0.20;;;;;;;22.63;44.25;100561.06;5076226;28;20487;-61
2023/03/24 11:24:56;;;;;;;0.20;0.20;;;;;;;22.54;43.41;100556.00;5094123;28;20032;-62
2023/03/24 11:27:26;;;;;;;0.15;0.15;;;;;;;22.40;43.57;100554.22;5076166;28;20485;-62
2023/03/24 11:29:53;;;;;;;0.20;0.20;;;;;;;22.27;42.77;100546.81;5076206;28;20474;-61
2023/03/24 11:32:28;;;;;;;0.10;0.10;;;;;;;21.74;44.72;100537.25;5076112;28;20024;-62
2023/03/24 11:35:04;;;;;;;0.20;0.20;;;;;;;22.11;43.88;100544.69;5092692;28;20042;-62
2023/03/24 11:37:34;;;;;;;0.20;0.20;;;;;;;22.37;43.58;100540.94;5092191;28;20028;-63
2023/03/24 11:40:12;;;;;;;0.20;0.20;;;;;;;22.53;43.55;100536.56;5075464;28;20028;-61
2023/03/24 11:42:46;;;;;;;0.20;0.20;;;;;;;22.20;43.92;100528.69;5075980;28;20032;-61
2023/03/24 11:45:35;;;;;;;0.20;0.20;;;;;;;22.00;44.41;100527.03;5076479;28;20073;-62